Time;durP1;ratioP1;P1;durP2;ratioP2;P2;SDS_P1;SDS_P2;PMS_P1;PMS_P2;Temp;Humidity;BMP_temperature;BMP_pressure;BME280_temperature;BME280_humidity;BME280_pressure;Samples;Min_cycle;Max_cycle;Signal;HPM_P1;HPM_P2
2020/12/04 00:02:17;;;;;;;7.97;5.90;;;4.90;49.80;;;;;;5055662;28;20218;-80
2020/12/04 00:04:43;;;;;;;10.18;6.18;;;5.00;49.30;;;;;;5054655;28;20241;-77
2020/12/04 00:07:12;;;;;;;7.10;5.78;;;5.10;48.10;;;;;;5042889;28;20200;-75
2020/12/04 00:09:41;;;;;;;8.73;6.30;;;5.10;48.10;;;;;;5028847;28;20739;-77
2020/12/04 00:12:08;;;;;;;8.07;5.82;;;5.20;48.60;;;;;;5039694;28;20204;-79
2020/12/04 00:14:34;;;;;;;6.32;5.20;;;5.20;48.80;;;;;;5047418;28;20238;-80
2020/12/04 00:17:01;;;;;;;9.35;5.35;;;5.20;48.00;;;;;;5037875;28;20216;-78
2020/12/04 00:19:27;;;;;;;6.75;5.45;;;5.30;48.40;;;;;;5027951;28;20241;-81
2020/12/04 00:21:53;;;;;;;5.90;5.15;;;5.30;48.20;;;;;;5035688;28;20204;-78
2020/12/04 00:24:21;;;;;;;6.07;4.80;;;5.40;47.90;;;;;;5047855;28;20212;-78
2020/12/04 00:26:47;;;;;;;7.05;5.18;;;5.40;48.00;;;;;;5038959;28;20267;-78
2020/12/04 00:29:13;;;;;;;6.90;4.82;;;5.40;47.10;;;;;;5028991;28;20226;-78
2020/12/04 00:31:40;;;;;;;6.05;4.95;;;5.40;47.30;;;;;;5030741;28;20250;-78
2020/12/04 00:34:06;;;;;;;6.68;5.50;;;5.50;46.30;;;;;;5026730;28;20265;-77
2020/12/04 00:36:33;;;;;;;7.18;4.95;;;5.40;47.50;;;;;;5024571;28;20244;-79
2020/12/04 00:38:59;;;;;;;6.90;5.07;;;5.40;46.80;;;;;;5025305;28;20240;-78
2020/12/04 00:41:28;;;;;;;7.13;5.50;;;5.50;47.20;;;;;;5047677;23;20673;-81
2020/12/04 00:43:55;;;;;;;6.93;5.35;;;5.50;47.40;;;;;;5039862;28;20258;-79
2020/12/04 00:46:21;;;;;;;8.70;5.82;;;5.50;48.30;;;;;;5045279;28;20274;-82
2020/12/04 00:48:47;;;;;;;6.90;5.72;;;5.40;48.60;;;;;;5051280;28;20222;-81
2020/12/04 00:51:14;;;;;;;5.50;4.25;;;5.40;49.00;;;;;;5063679;28;20237;-79
2020/12/04 00:53:41;;;;;;;6.03;4.97;;;5.40;49.60;;;;;;5066975;28;20203;-80
2020/12/04 00:56:07;;;;;;;5.95;4.45;;;5.50;50.00;;;;;;5054860;28;20715;-79
2020/12/04 00:58:35;;;;;;;6.38;4.20;;;5.60;50.30;;;;;;5044626;28;20205;-80
2020/12/04 01:01:02;;;;;;;5.65;4.20;;;5.60;50.10;;;;;;5044049;28;20242;-80
2020/12/04 01:03:29;;;;;;;4.60;4.10;;;5.70;50.50;;;;;;5056265;28;20241;-80
2020/12/04 01:05:55;;;;;;;5.57;3.85;;;5.80;50.30;;;;;;5060917;28;20234;-80
2020/12/04 01:08:22;;;;;;;5.82;3.63;;;5.80;50.40;;;;;;5060639;28;20207;-81
2020/12/04 01:10:49;;;;;;;5.20;4.00;;;5.80;50.50;;;;;;5061135;28;20226;-80
2020/12/04 01:13:15;;;;;;;3.95;3.53;;;6.00;50.80;;;;;;5060207;28;20671;-81
2020/12/04 01:15:42;;;;;;;4.40;3.22;;;6.00;50.70;;;;;;5060976;28;20720;-80
2020/12/04 01:18:09;;;;;;;4.03;3.20;;;6.00;50.90;;;;;;5050328;28;20510;-80
2020/12/04 01:20:35;;;;;;;4.72;3.30;;;6.00;50.70;;;;;;5043210;28;20228;-81
2020/12/04 01:23:02;;;;;;;4.47;3.60;;;6.10;50.90;;;;;;5074543;28;20225;-81
2020/12/04 01:25:28;;;;;;;5.03;3.78;;;6.10;51.30;;;;;;5072888;28;20272;-80
2020/12/04 01:27:55;;;;;;;6.03;3.85;;;6.20;50.80;;;;;;5044116;28;20212;-80
2020/12/04 01:30:21;;;;;;;3.03;2.72;;;6.20;51.00;;;;;;5039889;28;20273;-79
2020/12/04 01:32:48;;;;;;;3.35;2.78;;;6.20;50.40;;;;;;5038575;28;20711;-79
2020/12/04 01:35:15;;;;;;;5.40;3.05;;;6.20;50.30;;;;;;5041331;28;20239;-79
2020/12/04 01:37:42;;;;;;;3.78;3.45;;;6.20;50.60;;;;;;5059413;28;20215;-79
2020/12/04 01:40:09;;;;;;;4.35;2.65;;;6.20;51.10;;;;;;5059421;28;20633;-79
2020/12/04 01:42:36;;;;;;;3.30;3.00;;;6.20;50.70;;;;;;5027587;28;20296;-79
2020/12/04 01:45:03;;;;;;;3.58;2.63;;;6.10;51.10;;;;;;5021531;28;20220;-81
2020/12/04 01:47:30;;;;;;;2.97;2.72;;;6.20;50.30;;;;;;5040429;28;20204;-80
2020/12/04 01:49:57;;;;;;;3.83;2.78;;;6.30;50.10;;;;;;5037749;28;20209;-79
2020/12/04 01:52:25;;;;;;;3.22;2.60;;;6.20;50.10;;;;;;5035903;28;20278;-78
2020/12/04 01:54:52;;;;;;;2.72;2.53;;;6.20;50.20;;;;;;5035183;28;20291;-78
2020/12/04 01:57:20;;;;;;;2.90;2.60;;;6.20;50.20;;;;;;5034354;28;20209;-79
2020/12/04 01:59:46;;;;;;;3.30;2.78;;;6.20;49.90;;;;;;5047945;28;20561;-78
2020/12/04 02:02:18;;;;;;;3.50;2.60;;;6.20;50.20;;;;;;5054147;28;20210;-78
2020/12/04 02:04:44;;;;;;;3.30;2.45;;;6.20;50.60;;;;;;5042690;28;20197;-78
2020/12/04 02:07:18;;;;;;;3.40;3.03;;;6.20;50.50;;;;;;5035525;28;20322;-79
2020/12/04 02:09:50;;;;;;;3.13;2.80;;;6.20;48.60;;;;;;5045956;28;20187;-82
2020/12/04 02:12:19;;;;;;;4.97;3.67;;;6.10;48.30;;;;;;5057842;28;20224;-83
2020/12/04 02:14:49;;;;;;;3.55;3.10;;;6.20;47.80;;;;;;5052889;28;20207;-83
2020/12/04 02:17:16;;;;;;;3.75;2.97;;;6.20;46.90;;;;;;5039985;28;20733;-79
2020/12/04 02:19:43;;;;;;;3.67;3.00;;;6.20;46.90;;;;;;5038553;28;20231;-79
2020/12/04 02:22:12;;;;;;;5.03;3.80;;;6.20;46.90;;;;;;5038924;28;20255;-80
2020/12/04 02:24:39;;;;;;;3.80;3.40;;;6.10;45.90;;;;;;5042297;28;20262;-78
2020/12/04 02:27:08;;;;;;;3.97;3.30;;;6.20;46.50;;;;;;5051051;28;20579;-79
2020/12/04 02:29:36;;;;;;;4.40;3.35;;;6.10;45.80;;;;;;5062797;28;20230;-78
2020/12/04 02:32:03;;;;;;;3.35;3.05;;;6.00;45.00;;;;;;5044615;28;20228;-79
2020/12/04 02:34:29;;;;;;;3.97;3.42;;;6.10;45.80;;;;;;5063409;28;20211;-78
2020/12/04 02:36:55;;;;;;;4.03;3.65;;;6.10;46.00;;;;;;5063933;28;20208;-78
2020/12/04 02:39:23;;;;;;;3.75;2.80;;;6.10;45.40;;;;;;5064221;28;20263;-81
2020/12/04 02:41:49;;;;;;;4.43;2.95;;;6.10;45.60;;;;;;5045965;28;20232;-79
2020/12/04 02:44:15;;;;;;;3.70;3.05;;;6.20;45.60;;;;;;5042708;28;20652;-79
2020/12/04 02:46:46;;;;;;;3.13;2.83;;;6.10;45.30;;;;;;5041469;28;20254;-80
2020/12/04 02:49:13;;;;;;;2.80;2.58;;;6.20;45.30;;;;;;5039273;28;20254;-78
2020/12/04 02:51:44;;;;;;;3.20;2.90;;;6.20;45.70;;;;;;5046924;28;20233;-78
2020/12/04 02:54:10;;;;;;;3.25;2.50;;;6.20;45.60;;;;;;5053031;28;20250;-77
2020/12/04 02:56:37;;;;;;;3.67;2.75;;;6.20;44.90;;;;;;5056669;28;20235;-80
2020/12/04 02:59:04;;;;;;;2.97;2.67;;;6.30;45.30;;;;;;5054271;28;20675;-78
2020/12/04 03:01:30;;;;;;;2.97;2.45;;;6.20;45.80;;;;;;5052066;28;20231;-79
2020/12/04 03:03:57;;;;;;;3.33;2.70;;;6.20;45.70;;;;;;5053912;28;20222;-78
2020/12/04 03:06:23;;;;;;;3.80;2.60;;;6.30;44.80;;;;;;5051788;28;20733;-78
2020/12/04 03:08:50;;;;;;;3.85;2.83;;;6.30;44.20;;;;;;5052491;28;20234;-79
2020/12/04 03:11:18;;;;;;;5.57;2.97;;;6.30;45.10;;;;;;5046247;28;20231;-79
2020/12/04 03:13:46;;;;;;;4.30;2.63;;;6.30;45.10;;;;;;5046865;28;20243;-80
2020/12/04 03:16:12;;;;;;;4.03;3.30;;;6.30;45.90;;;;;;5055607;28;20214;-79
2020/12/04 03:18:38;;;;;;;3.42;2.97;;;6.30;45.70;;;;;;5055319;28;20277;-79
2020/12/04 03:21:05;;;;;;;2.78;2.45;;;6.40;45.30;;;;;;5041458;28;20632;-78
2020/12/04 03:23:31;;;;;;;3.67;2.88;;;6.30;45.60;;;;;;5035364;28;20223;-78
2020/12/04 03:25:58;;;;;;;4.55;2.55;;;6.40;47.00;;;;;;5032289;28;20196;-77
2020/12/04 03:28:24;;;;;;;3.50;2.40;;;6.50;47.20;;;;;;5042374;28;20285;-79
2020/12/04 03:30:51;;;;;;;2.53;2.10;;;6.50;47.20;;;;;;5052894;28;20220;-79
2020/12/04 03:33:18;;;;;;;2.00;1.80;;;6.50;47.20;;;;;;5045743;28;20235;-77
2020/12/04 03:35:44;;;;;;;1.70;1.60;;;6.90;45.40;;;;;;5036534;28;20353;-78
2020/12/04 03:38:11;;;;;;;3.08;1.95;;;7.00;45.70;;;;;;5032438;28;20251;-77
2020/12/04 03:40:37;;;;;;;1.85;1.52;;;7.00;45.70;;;;;;5032210;28;20520;-77
2020/12/04 03:43:03;;;;;;;1.60;1.50;;;7.10;45.60;;;;;;5032501;28;20267;-79
2020/12/04 03:45:30;;;;;;;1.58;1.48;;;7.10;45.40;;;;;;5032338;28;20262;-78
2020/12/04 03:47:58;;;;;;;1.65;1.35;;;7.20;45.60;;;;;;5032541;28;20215;-78
2020/12/04 03:50:24;;;;;;;1.50;1.27;;;7.40;45.20;;;;;;5041469;28;20228;-78
2020/12/04 03:52:50;;;;;;;1.65;1.10;;;7.50;45.50;;;;;;5035316;28;20205;-78
2020/12/04 03:55:17;;;;;;;1.63;1.48;;;7.70;45.70;;;;;;5041504;28;20205;-80
2020/12/04 03:57:43;;;;;;;1.30;1.20;;;7.80;46.00;;;;;;5060257;28;20223;-77
2020/12/04 04:00:09;;;;;;;1.35;1.10;;;7.80;46.60;;;;;;5055226;28;20258;-77
2020/12/04 04:02:36;;;;;;;1.48;1.38;;;7.80;46.30;;;;;;5044131;28;20266;-76
2020/12/04 04:05:03;;;;;;;1.95;1.50;;;7.90;46.60;;;;;;5055648;28;20207;-75
2020/12/04 04:07:29;;;;;;;1.60;1.30;;;7.80;47.80;;;;;;5070729;28;20208;-77
2020/12/04 04:09:56;;;;;;;1.65;1.45;;;7.80;47.60;;;;;;5058344;28;20641;-77
2020/12/04 04:12:22;;;;;;;3.15;1.48;;;7.90;46.40;;;;;;5055224;28;20336;-77
2020/12/04 04:14:49;;;;;;;1.90;1.48;;;8.10;45.20;;;;;;5053571;28;20213;-77
2020/12/04 04:17:15;;;;;;;1.77;1.67;;;8.20;44.80;;;;;;5037618;28;20204;-77
2020/12/04 04:19:42;;;;;;;1.60;1.50;;;8.20;44.50;;;;;;5046327;28;20205;-77
2020/12/04 04:22:09;;;;;;;2.08;1.70;;;8.20;45.00;;;;;;5052584;28;20233;-78
2020/12/04 04:24:35;;;;;;;1.50;1.40;;;8.10;45.60;;;;;;5048928;28;20210;-77
2020/12/04 04:27:02;;;;;;;1.55;1.45;;;8.10;45.50;;;;;;5050228;28;20197;-79
2020/12/04 04:29:28;;;;;;;2.13;1.65;;;8.00;45.90;;;;;;5040913;28;20237;-78
2020/12/04 04:31:54;;;;;;;1.88;1.60;;;8.00;45.70;;;;;;5049743;28;20262;-78
2020/12/04 04:34:21;;;;;;;1.63;1.50;;;8.00;47.10;;;;;;5053646;28;20294;-78
2020/12/04 04:36:47;;;;;;;1.80;1.70;;;7.90;46.50;;;;;;5059376;28;20234;-78
2020/12/04 04:39:14;;;;;;;2.17;1.98;;;7.90;46.00;;;;;;5047618;28;20297;-78
2020/12/04 04:41:41;;;;;;;1.90;1.58;;;7.90;46.90;;;;;;5041285;28;20229;-78
2020/12/04 04:44:11;;;;;;;1.50;1.40;;;7.80;47.00;;;;;;5056351;28;20200;-79
2020/12/04 04:46:43;;;;;;;1.70;1.60;;;7.80;47.10;;;;;;5063534;28;20250;-79
2020/12/04 04:49:12;;;;;;;2.17;1.67;;;7.80;47.30;;;;;;5064941;28;20215;-78
2020/12/04 04:51:41;;;;;;;1.35;1.25;;;7.80;47.00;;;;;;5062045;28;20240;-78
2020/12/04 04:54:09;;;;;;;1.30;1.20;;;7.80;47.10;;;;;;5048998;28;20221;-78
2020/12/04 04:56:37;;;;;;;1.10;1.00;;;8.00;45.80;;;;;;5039049;28;20226;-78
2020/12/04 04:59:07;;;;;;;1.48;1.25;;;8.20;45.10;;;;;;5053850;28;20197;-78
2020/12/04 05:01:34;;;;;;;1.15;1.02;;;8.30;44.90;;;;;;5067608;28;20226;-78
2020/12/04 05:04:01;;;;;;;1.00;0.95;;;8.50;44.10;;;;;;5071902;28;20262;-78
2020/12/04 05:06:35;;;;;;;0.90;0.90;;;8.60;44.20;;;;;;5072465;28;20212;-78
2020/12/04 05:09:03;;;;;;;0.70;0.70;;;8.60;44.20;;;;;;5071734;28;20209;-78
2020/12/04 05:11:31;;;;;;;2.45;0.95;;;8.70;44.30;;;;;;5068235;28;20241;-78
2020/12/04 05:14:18;;;;;;;2.47;0.90;;;8.80;44.30;;;;;;5049389;28;20219;-77
2020/12/04 05:16:45;;;;;;;0.70;0.70;;;8.80;44.30;;;;;;5045894;28;20213;-77
2020/12/04 05:19:13;;;;;;;0.80;0.68;;;8.90;44.40;;;;;;5042952;28;20209;-83
2020/12/04 05:21:39;;;;;;;0.85;0.60;;;9.00;44.00;;;;;;5046585;28;20219;-78
2020/12/04 05:24:06;;;;;;;0.50;0.50;;;9.00;44.40;;;;;;5060380;28;20205;-80
2020/12/04 05:26:34;;;;;;;0.75;0.75;;;8.90;45.20;;;;;;5056577;28;20228;-79
2020/12/04 05:29:01;;;;;;;0.70;0.70;;;8.90;44.40;;;;;;5044980;28;20209;-81
2020/12/04 05:31:31;;;;;;;2.85;0.80;;;8.90;44.40;;;;;;5043771;28;20229;-79
2020/12/04 05:33:58;;;;;;;0.70;0.70;;;8.90;44.40;;;;;;5039917;28;20268;-79
2020/12/04 05:36:26;;;;;;;3.67;0.80;;;9.00;44.00;;;;;;5037772;28;20315;-80
2020/12/04 05:38:53;;;;;;;0.95;0.80;;;9.00;44.50;;;;;;5037972;28;20206;-80
2020/12/04 05:41:20;;;;;;;1.17;0.63;;;9.00;44.50;;;;;;5037173;28;20255;-79
2020/12/04 05:43:46;;;;;;;1.20;1.10;;;8.90;44.80;;;;;;5039802;28;20266;-80
2020/12/04 05:46:17;;;;;;;1.02;0.93;;;8.80;45.70;;;;;;5030491;28;20236;-80
2020/12/04 05:48:55;;;;;;;1.20;1.05;;;8.80;45.90;;;;;;5016599;28;20212;-79
2020/12/04 05:51:25;;;;;;;0.82;0.70;;;8.70;45.90;;;;;;5054802;28;20243;-79
2020/12/04 05:53:52;;;;;;;0.82;0.70;;;8.60;47.10;;;;;;5068074;28;20213;-82
2020/12/04 05:56:19;;;;;;;1.65;0.93;;;8.70;46.60;;;;;;5074021;28;20761;-81
2020/12/04 05:58:47;;;;;;;0.82;0.70;;;8.70;45.50;;;;;;5058816;28;20224;-80
2020/12/04 06:01:16;;;;;;;1.50;1.00;;;8.70;46.90;;;;;;5048442;28;20305;-79
2020/12/04 06:03:43;;;;;;;0.93;0.93;;;8.60;45.60;;;;;;5047235;28;20212;-80
2020/12/04 06:06:13;;;;;;;0.90;0.90;;;8.60;46.10;;;;;;5042610;28;20214;-79
2020/12/04 06:08:40;;;;;;;0.77;0.77;;;8.60;46.20;;;;;;5039164;28;20626;-80
2020/12/04 06:11:07;;;;;;;0.70;0.70;;;8.60;46.10;;;;;;5037524;28;20235;-79
2020/12/04 06:13:35;;;;;;;0.77;0.65;;;8.60;46.50;;;;;;5037676;28;20220;-80
2020/12/04 06:16:12;;;;;;;0.85;0.85;;;8.60;46.10;;;;;;5035992;28;20211;-80
2020/12/04 06:18:39;;;;;;;1.17;0.80;;;8.60;46.10;;;;;;5040679;28;20200;-79
2020/12/04 06:21:07;;;;;;;1.15;0.98;;;8.60;45.80;;;;;;5059269;28;20319;-79
2020/12/04 06:23:34;;;;;;;2.70;0.70;;;8.60;46.30;;;;;;5060250;28;20195;-79
2020/12/04 06:26:10;;;;;;;0.80;0.80;;;8.50;46.00;;;;;;5063999;28;20237;-77
2020/12/04 06:28:56;;;;;;;2.28;0.90;;;8.50;46.20;;;;;;5019876;28;20625;-80
2020/12/04 06:31:33;;;;;;;1.60;0.85;;;8.50;46.10;;;;;;5018113;28;20258;-81
2020/12/04 06:34:13;;;;;;;1.58;0.90;;;8.50;46.00;;;;;;5017402;28;20202;-79
2020/12/04 06:36:41;;;;;;;0.90;0.80;;;8.50;46.20;;;;;;5026641;28;20298;-79
2020/12/04 06:39:08;;;;;;;1.30;0.80;;;8.50;45.60;;;;;;5038334;28;20315;-79
2020/12/04 06:41:35;;;;;;;2.00;0.88;;;8.50;45.40;;;;;;5070127;23;20462;-79
2020/12/04 06:44:04;;;;;;;2.13;0.93;;;8.50;46.00;;;;;;5060976;28;20236;-78
2020/12/04 06:46:41;;;;;;;1.17;0.90;;;8.50;45.50;;;;;;5063746;28;20357;-79
2020/12/04 06:52:13;;;;;;;1.13;1.00;;;8.60;45.40;;;;;;5018553;28;20724;-79
2020/12/04 06:54:41;;;;;;;0.80;0.80;;;8.70;44.20;;;;;;5021164;28;20197;-77
2020/12/04 06:57:08;;;;;;;1.90;1.40;;;8.80;44.30;;;;;;5039982;28;20235;-79
2020/12/04 06:59:36;;;;;;;3.05;1.30;;;8.80;43.90;;;;;;5039519;28;20200;-77
2020/12/04 07:02:05;;;;;;;1.30;1.20;;;8.70;44.30;;;;;;5038325;28;20256;-80
2020/12/04 07:04:32;;;;;;;2.33;1.33;;;8.80;43.10;;;;;;5033629;28;20264;-80
2020/12/04 07:07:13;;;;;;;2.55;1.30;;;8.80;43.80;;;;;;5016300;28;20643;-78
2020/12/04 07:09:41;;;;;;;1.85;1.33;;;8.80;44.20;;;;;;5021733;28;20279;-79
2020/12/04 07:12:10;;;;;;;1.45;1.35;;;8.80;44.30;;;;;;5023804;28;20669;-80
2020/12/04 07:14:36;;;;;;;1.50;1.40;;;8.70;45.40;;;;;;5027151;28;20205;-77
2020/12/04 07:17:03;;;;;;;1.88;1.65;;;8.70;44.30;;;;;;5040943;28;20299;-78
2020/12/04 07:19:30;;;;;;;3.10;1.60;;;8.70;45.20;;;;;;5039346;28;20212;-79
2020/12/04 07:21:56;;;;;;;3.70;1.40;;;8.80;45.80;;;;;;5038441;28;20224;-79
2020/12/04 07:24:23;;;;;;;2.55;1.40;;;8.70;45.00;;;;;;5052012;28;20193;-79
2020/12/04 07:26:53;;;;;;;1.90;1.33;;;8.80;45.30;;;;;;5034195;28;20651;-78
2020/12/04 07:29:19;;;;;;;1.75;1.65;;;8.80;45.20;;;;;;5033293;28;20267;-78
2020/12/04 07:31:48;;;;;;;2.38;1.90;;;8.80;46.00;;;;;;5034072;28;20324;-79
2020/12/04 07:34:20;;;;;;;2.75;1.70;;;8.80;45.40;;;;;;5021687;28;20221;-79
2020/12/04 07:36:56;;;;;;;2.25;1.60;;;8.80;45.70;;;;;;5015349;28;20234;-78
2020/12/04 07:39:26;;;;;;;1.48;1.38;;;8.80;45.70;;;;;;5039557;28;20206;-78
2020/12/04 07:41:54;;;;;;;4.30;2.70;;;8.80;45.50;;;;;;5044086;28;20620;-78
2020/12/04 07:44:30;;;;;;;5.30;3.38;;;8.80;45.30;;;;;;5020005;28;20221;-78
2020/12/04 07:47:03;;;;;;;7.00;3.30;;;8.80;45.60;;;;;;5021270;28;20263;-79
2020/12/04 07:49:30;;;;;;;3.70;2.63;;;8.80;45.90;;;;;;5034086;28;20294;-79
2020/12/04 07:52:09;;;;;;;6.78;2.35;;;8.80;45.70;;;;;;5020239;28;20271;-79
2020/12/04 07:54:37;;;;;;;4.78;2.70;;;8.70;46.10;;;;;;5013341;28;20712;-79
2020/12/04 07:57:11;;;;;;;3.38;2.03;;;8.70;45.90;;;;;;5017002;28;21099;-78
2020/12/04 07:59:40;;;;;;;5.35;2.20;;;8.70;46.60;;;;;;5001902;28;20191;-79
2020/12/04 08:02:08;;;;;;;3.08;2.20;;;8.70;46.30;;;;;;5017831;28;20321;-79
2020/12/04 08:04:35;;;;;;;4.78;1.58;;;8.70;46.60;;;;;;5005277;28;20214;-78
2020/12/04 08:07:09;;;;;;;1.00;0.90;;;8.70;45.30;;;;;;4999163;28;20254;-79
2020/12/04 08:09:39;;;;;;;2.65;1.35;;;8.90;44.40;;;;;;5031914;28;20658;-79
2020/12/04 08:12:11;;;;;;;1.00;0.90;;;9.10;44.50;;;;;;5026445;28;20287;-78
2020/12/04 08:14:39;;;;;;;1.00;0.90;;;9.20;43.60;;;;;;5030231;28;20236;-77
2020/12/04 08:17:07;;;;;;;1.73;1.63;;;9.30;43.40;;;;;;5019533;28;20211;-77
2020/12/04 08:19:35;;;;;;;3.20;1.40;;;9.40;43.10;;;;;;5025437;28;20274;-76
2020/12/04 08:22:04;;;;;;;1.13;0.90;;;9.50;42.60;;;;;;5024304;28;20212;-82
2020/12/04 08:24:33;;;;;;;2.00;0.90;;;9.50;43.10;;;;;;5022747;28;20213;-77
2020/12/04 08:27:11;;;;;;;0.70;0.70;;;9.60;43.10;;;;;;5006903;28;20215;-77
2020/12/04 08:29:40;;;;;;;0.75;0.70;;;9.60;43.40;;;;;;5012640;28;20310;-78
2020/12/04 08:32:13;;;;;;;1.05;0.90;;;9.60;43.10;;;;;;5016841;28;20237;-78
2020/12/04 08:34:42;;;;;;;1.20;0.95;;;9.70;43.10;;;;;;5018328;28;20194;-77
2020/12/04 08:37:10;;;;;;;0.93;0.70;;;9.70;42.80;;;;;;5014123;28;20206;-77
2020/12/04 08:39:43;;;;;;;0.80;0.77;;;9.90;42.60;;;;;;5020821;28;20295;-77
2020/12/04 08:42:32;;;;;;;1.60;0.60;;;9.80;43.00;;;;;;4995362;28;20233;-78
2020/12/04 08:45:02;;;;;;;2.95;0.60;;;9.80;43.10;;;;;;4995761;28;20210;-80
2020/12/04 08:47:30;;;;;;;1.17;0.90;;;9.70;43.40;;;;;;5011221;28;20275;-78
2020/12/04 08:49:57;;;;;;;0.57;0.57;;;9.80;43.30;;;;;;5016325;28;20659;-81
2020/12/04 08:52:41;;;;;;;0.85;0.70;;;9.70;43.50;;;;;;5019080;28;20316;-78
2020/12/04 08:55:19;;;;;;;1.40;1.30;;;9.70;43.90;;;;;;5018300;28;20207;-79
2020/12/04 08:57:47;;;;;;;1.60;1.13;;;9.60;44.50;;;;;;5021995;28;20238;-79
2020/12/04 09:00:16;;;;;;;2.92;0.90;;;9.60;44.80;;;;;;5023855;28;20208;-78
2020/12/04 09:02:43;;;;;;;0.75;0.60;;;9.60;44.60;;;;;;5026591;28;20222;-78
2020/12/04 09:05:12;;;;;;;1.17;0.80;;;9.50;45.00;;;;;;5019461;28;20215;-79
2020/12/04 09:07:39;;;;;;;0.70;0.70;;;9.40;44.90;;;;;;5022431;28;20227;-78
2020/12/04 09:10:08;;;;;;;2.05;0.85;;;9.50;45.00;;;;;;5027803;28;20206;-80
2020/12/04 09:12:35;;;;;;;1.98;0.75;;;9.50;45.70;;;;;;5042309;28;20229;-78
2020/12/04 09:15:06;;;;;;;1.67;0.90;;;9.40;46.50;;;;;;5052164;28;20233;-77
2020/12/04 09:17:32;;;;;;;1.02;0.90;;;9.40;46.40;;;;;;5055056;28;20212;-77
2020/12/04 09:19:59;;;;;;;0.90;0.60;;;9.40;46.60;;;;;;5037620;28;20240;-77
2020/12/04 09:22:25;;;;;;;1.55;0.90;;;9.40;46.30;;;;;;5033857;28;20259;-77
2020/12/04 09:24:52;;;;;;;3.75;1.38;;;9.30;46.60;;;;;;5040655;28;20214;-77
2020/12/04 09:27:19;;;;;;;2.03;1.10;;;9.20;46.80;;;;;;5026480;28;20651;-79
2020/12/04 09:29:45;;;;;;;1.55;1.10;;;9.20;47.20;;;;;;5028432;28;20232;-76
2020/12/04 09:32:15;;;;;;;2.47;1.30;;;9.20;47.20;;;;;;5034200;28;20255;-78
2020/12/04 09:34:43;;;;;;;1.52;1.10;;;9.10;48.10;;;;;;5043941;28;20280;-78
2020/12/04 09:37:15;;;;;;;1.60;1.05;;;9.10;47.80;;;;;;5044541;28;20214;-80
2020/12/04 09:39:44;;;;;;;1.95;1.00;;;9.00;49.00;;;;;;5046112;28;20211;-78
2020/12/04 09:42:11;;;;;;;1.77;1.30;;;8.90;49.30;;;;;;5043596;28;20232;-79
2020/12/04 09:44:38;;;;;;;2.30;1.63;;;8.90;49.30;;;;;;5046487;28;20233;-78
2020/12/04 09:47:04;;;;;;;3.22;1.20;;;9.00;49.40;;;;;;5046743;28;20200;-79
2020/12/04 09:49:32;;;;;;;1.73;1.35;;;8.90;49.90;;;;;;5023850;28;20192;-77
2020/12/04 09:51:59;;;;;;;3.13;1.80;;;8.90;50.50;;;;;;5028136;28;20222;-77
2020/12/04 09:54:26;;;;;;;1.83;1.30;;;8.90;51.30;;;;;;5022649;28;20208;-77
2020/12/04 09:56:54;;;;;;;2.90;1.20;;;8.80;51.80;;;;;;5018337;28;20210;-76
2020/12/04 09:59:21;;;;;;;1.42;1.20;;;8.80;52.40;;;;;;5019612;28;20230;-77
2020/12/04 10:01:49;;;;;;;1.88;1.67;;;8.90;52.80;;;;;;5021960;28;20241;-78
2020/12/04 10:04:15;;;;;;;1.33;1.23;;;8.90;53.00;;;;;;5024485;28;20215;-79
2020/12/04 10:06:43;;;;;;;3.92;1.75;;;8.80;53.10;;;;;;5024056;28;20216;-77
2020/12/04 10:09:12;;;;;;;2.13;1.50;;;8.80;53.80;;;;;;5022252;28;20208;-76
2020/12/04 10:11:39;;;;;;;2.95;1.60;;;8.90;54.10;;;;;;5029650;28;20652;-78
2020/12/04 10:14:05;;;;;;;1.52;1.30;;;8.80;53.90;;;;;;5030164;28;20237;-77
2020/12/04 10:16:32;;;;;;;1.60;1.25;;;8.80;54.50;;;;;;5047644;28;20205;-79
2020/12/04 10:18:58;;;;;;;1.38;1.15;;;8.80;54.70;;;;;;5051248;28;20214;-80
2020/12/04 10:21:25;;;;;;;1.48;1.38;;;8.70;54.70;;;;;;5038267;28;20219;-81
2020/12/04 10:23:54;;;;;;;1.70;1.50;;;8.60;55.60;;;;;;5041539;28;20246;-80
2020/12/04 10:26:58;;;;;;;1.20;1.10;;;8.70;56.80;;;;;;5030856;28;20229;-79
2020/12/04 10:29:24;;;;;;;1.90;1.20;;;8.80;56.10;;;;;;5027647;28;20213;-79
2020/12/04 10:31:51;;;;;;;2.42;1.05;;;8.80;56.10;;;;;;5022828;28;20599;-78
2020/12/04 10:34:17;;;;;;;1.27;1.00;;;8.80;56.20;;;;;;5033714;28;20222;-79
2020/12/04 10:36:44;;;;;;;4.32;1.30;;;8.80;56.50;;;;;;5040728;28;20306;-79
2020/12/04 10:39:13;;;;;;;2.70;1.50;;;8.70;56.50;;;;;;5037964;28;20234;-78
2020/12/04 10:41:42;;;;;;;2.00;1.58;;;8.70;57.70;;;;;;5016368;28;20286;-78
2020/12/04 10:44:09;;;;;;;3.30;1.58;;;8.70;58.50;;;;;;4997198;28;20242;-79
2020/12/04 10:46:37;;;;;;;4.40;2.25;;;8.70;58.50;;;;;;4996075;28;20718;-79
2020/12/04 10:49:04;;;;;;;1.77;1.20;;;8.70;58.50;;;;;;4962267;28;20247;-79
2020/12/04 10:51:31;;;;;;;1.70;1.20;;;8.50;58.40;;;;;;4971813;28;20321;-79
2020/12/04 10:53:57;;;;;;;1.85;1.20;;;8.60;58.40;;;;;;4981541;28;20213;-79
2020/12/04 10:56:25;;;;;;;1.02;0.90;;;8.60;58.40;;;;;;4980121;28;20264;-78
2020/12/04 10:58:53;;;;;;;1.17;0.90;;;8.60;58.40;;;;;;4979585;28;20391;-79
2020/12/04 11:01:26;;;;;;;2.38;1.00;;;8.70;58.50;;;;;;4980641;28;20314;-80
2020/12/04 11:06:38;;;;;;;2.70;1.38;;;8.80;58.60;;;;;;4959533;28;20235;-78
2020/12/04 11:09:04;;;;;;;2.05;1.35;;;8.80;59.30;;;;;;4978584;28;20338;-78
2020/12/04 11:11:32;;;;;;;1.55;1.45;;;8.80;59.30;;;;;;4977410;28;20303;-78
2020/12/04 11:13:58;;;;;;;2.72;1.65;;;8.80;58.70;;;;;;4971401;28;20203;-78
2020/12/04 11:16:25;;;;;;;1.48;1.38;;;8.70;59.70;;;;;;4981544;28;20673;-78
2020/12/04 11:18:51;;;;;;;1.85;1.75;;;8.60;60.50;;;;;;4992177;28;20535;-77
2020/12/04 11:21:17;;;;;;;5.03;1.70;;;8.60;60.60;;;;;;4992382;28;20241;-78
2020/12/04 11:23:44;;;;;;;1.60;1.50;;;8.50;59.90;;;;;;4995486;28;20209;-79
2020/12/04 11:26:10;;;;;;;1.73;1.58;;;8.50;60.70;;;;;;4996278;28;20209;-78
2020/12/04 11:28:37;;;;;;;1.55;1.40;;;8.50;61.10;;;;;;4996343;28;20201;-79
2020/12/04 11:31:04;;;;;;;2.50;1.70;;;8.60;61.90;;;;;;4998537;28;20223;-78
2020/12/04 11:33:30;;;;;;;2.60;1.40;;;8.60;60.90;;;;;;4997453;28;20223;-78
2020/12/04 11:35:57;;;;;;;2.80;1.63;;;8.70;60.70;;;;;;4996345;28;20242;-80
2020/12/04 11:38:24;;;;;;;1.70;1.10;;;8.80;60.10;;;;;;4993527;28;20208;-77
2020/12/04 11:40:50;;;;;;;3.38;1.40;;;8.50;61.20;;;;;;4985082;28;20302;-78
2020/12/04 11:43:17;;;;;;;1.08;1.00;;;8.30;63.60;;;;;;4982342;28;20234;-79
2020/12/04 11:45:44;;;;;;;1.40;1.30;;;8.20;64.70;;;;;;4984140;28;20308;-76
2020/12/04 11:48:11;;;;;;;3.15;1.80;;;8.00;66.80;;;;;;4988965;28;20216;-78
2020/12/04 11:50:37;;;;;;;1.30;1.20;;;8.00;67.40;;;;;;4980166;28;20231;-77
2020/12/04 11:53:04;;;;;;;1.50;1.40;;;7.90;69.20;;;;;;4977064;28;20785;-77
2020/12/04 11:55:30;;;;;;;1.80;1.63;;;7.90;70.00;;;;;;4972823;28;20204;-78
2020/12/04 11:57:57;;;;;;;1.83;1.67;;;7.90;70.40;;;;;;4982428;28;20234;-78
2020/12/04 12:00:23;;;;;;;1.58;1.48;;;7.80;71.40;;;;;;4980711;28;20211;-78
2020/12/04 12:02:50;;;;;;;1.92;1.48;;;7.70;71.80;;;;;;4978249;28;20299;-77
2020/12/04 12:05:17;;;;;;;3.10;1.70;;;7.80;72.70;;;;;;4976317;28;20280;-80
2020/12/04 12:07:43;;;;;;;5.72;2.53;;;7.90;72.70;;;;;;4980519;28;20581;-77
2020/12/04 12:10:10;;;;;;;3.60;1.90;;;7.90;72.40;;;;;;4980685;28;20238;-76
2020/12/04 12:12:36;;;;;;;5.25;1.75;;;7.90;71.40;;;;;;4999817;28;20230;-79
2020/12/04 12:15:03;;;;;;;2.60;2.03;;;8.00;71.20;;;;;;5004138;28;20214;-77
2020/12/04 12:17:30;;;;;;;1.73;1.50;;;8.00;71.20;;;;;;5007609;28;20243;-77
2020/12/04 12:19:57;;;;;;;2.63;1.73;;;8.10;70.50;;;;;;5004074;28;20205;-78
2020/12/04 12:22:24;;;;;;;2.10;1.90;;;8.20;69.80;;;;;;4987283;28;20254;-78
2020/12/04 12:24:51;;;;;;;2.83;2.10;;;8.20;68.70;;;;;;4981296;28;20212;-78
2020/12/04 12:27:17;;;;;;;2.55;1.33;;;8.00;68.50;;;;;;4994951;28;20215;-79
2020/12/04 12:29:45;;;;;;;3.03;2.00;;;8.00;69.20;;;;;;4999022;28;20268;-78
2020/12/04 12:32:11;;;;;;;1.90;1.80;;;8.10;69.80;;;;;;4987810;28;20231;-78
2020/12/04 12:37:23;;;;;;;1.80;1.70;;;8.30;67.10;;;;;;4997471;28;20209;-78
2020/12/04 12:39:49;;;;;;;2.65;1.90;;;8.30;67.10;;;;;;4999573;28;20242;-76
2020/12/04 12:42:18;;;;;;;3.47;2.08;;;8.20;67.00;;;;;;5000825;28;20285;-80
2020/12/04 12:44:45;;;;;;;3.47;2.65;;;8.30;67.10;;;;;;5000217;28;20210;-78
2020/12/04 12:47:11;;;;;;;2.22;2.00;;;8.30;67.10;;;;;;5004137;28;20278;-80
2020/12/04 12:49:40;;;;;;;1.60;1.50;;;8.30;67.10;;;;;;5005873;28;20214;-78
2020/12/04 12:52:07;;;;;;;1.80;1.60;;;8.30;67.10;;;;;;4998314;28;20246;-79
2020/12/04 12:54:34;;;;;;;2.75;1.60;;;8.30;67.10;;;;;;4988037;28;20231;-78
2020/12/04 12:57:00;;;;;;;1.80;1.67;;;8.30;66.10;;;;;;4992696;28;20248;-80
2020/12/04 12:59:27;;;;;;;2.08;1.88;;;8.40;66.90;;;;;;4995068;28;20204;-79
2020/12/04 13:01:54;;;;;;;3.55;2.75;;;8.40;66.00;;;;;;5004047;28;20226;-78
2020/12/04 13:04:21;;;;;;;3.80;2.50;;;8.40;67.20;;;;;;5006141;28;20212;-78
2020/12/04 13:06:48;;;;;;;5.15;3.20;;;8.50;66.50;;;;;;4989874;28;20215;-78
2020/12/04 13:09:16;;;;;;;4.47;2.75;;;8.60;66.50;;;;;;4992831;28;20220;-78
2020/12/04 13:11:43;;;;;;;3.70;3.40;;;8.60;66.80;;;;;;4991220;28;20235;-79